sensor_id;sensor_type;location;lat;lon;timestamp;temperature;humidity
35645;DHT22;21764;52.042;6.830;2023-03-01T00:00:04;-1.70;96.60
35645;DHT22;21764;52.042;6.830;2023-03-01T00:05:05;-1.80;96.40
35645;DHT22;21764;52.042;6.830;2023-03-01T00:10:08;-1.70;96.10
35645;DHT22;21764;52.042;6.830;2023-03-01T00:15:09;-1.90;96.00
35645;DHT22;21764;52.042;6.830;2023-03-01T00:20:10;-2.00;96.20
35645;DHT22;21764;52.042;6.830;2023-03-01T00:25:11;-2.10;96.30
35645;DHT22;21764;52.042;6.830;2023-03-01T00:30:11;-2.10;96.60
35645;DHT22;21764;52.042;6.830;2023-03-01T00:35:13;-2.20;96.90
35645;DHT22;21764;52.042;6.830;2023-03-01T00:40:14;-2.20;97.00
35645;DHT22;21764;52.042;6.830;2023-03-01T00:45:16;-2.30;97.40
35645;DHT22;21764;52.042;6.830;2023-03-01T00:50:18;-2.20;96.90
35645;DHT22;21764;52.042;6.830;2023-03-01T00:55:19;-2.30;97.50
35645;DHT22;21764;52.042;6.830;2023-03-01T01:00:20;-2.30;97.30
35645;DHT22;21764;52.042;6.830;2023-03-01T01:05:21;-2.40;97.10
35645;DHT22;21764;52.042;6.830;2023-03-01T01:10:21;-2.50;97.40
35645;DHT22;21764;52.042;6.830;2023-03-01T01:15:22;-2.50;97.30
35645;DHT22;21764;52.042;6.830;2023-03-01T01:20:23;-2.50;97.30
35645;DHT22;21764;52.042;6.830;2023-03-01T01:25:23;-2.60;97.90
35645;DHT22;21764;52.042;6.830;2023-03-01T01:30:27;-2.60;98.20
35645;DHT22;21764;52.042;6.830;2023-03-01T01:35:28;-2.60;98.10
35645;DHT22;21764;52.042;6.830;2023-03-01T01:40:28;-2.70;98.10
35645;DHT22;21764;52.042;6.830;2023-03-01T01:45:34;-2.70;98.60
35645;DHT22;21764;52.042;6.830;2023-03-01T01:50:35;-2.70;98.10
35645;DHT22;21764;52.042;6.830;2023-03-01T01:55:42;-2.70;98.40
35645;DHT22;21764;52.042;6.830;2023-03-01T02:00:43;-2.80;98.20
35645;DHT22;21764;52.042;6.830;2023-03-01T02:05:57;-2.80;98.10
35645;DHT22;21764;52.042;6.830;2023-03-01T02:10:59;-2.90;98.70
35645;DHT22;21764;52.042;6.830;2023-03-01T02:16:13;-2.90;98.30
35645;DHT22;21764;52.042;6.830;2023-03-01T02:21:38;-3.00;98.50
35645;DHT22;21764;52.042;6.830;2023-03-01T02:26:48;-3.10;98.70
35645;DHT22;21764;52.042;6.830;2023-03-01T02:31:52;-3.20;98.90
35645;DHT22;21764;52.042;6.830;2023-03-01T02:37:01;-3.10;98.60
35645;DHT22;21764;52.042;6.830;2023-03-01T02:42:06;-3.10;98.30
35645;DHT22;21764;52.042;6.830;2023-03-01T02:47:06;-3.20;98.40
35645;DHT22;21764;52.042;6.830;2023-03-01T02:57:27;-3.30;98.80
35645;DHT22;21764;52.042;6.830;2023-03-01T03:02:29;-3.30;98.50
35645;DHT22;21764;52.042;6.830;2023-03-01T03:07:38;-3.30;98.70
35645;DHT22;21764;52.042;6.830;2023-03-01T03:12:40;-3.40;99.00
35645;DHT22;21764;52.042;6.830;2023-03-01T03:17:42;-3.40;99.00
35645;DHT22;21764;52.042;6.830;2023-03-01T03:22:43;-3.40;99.20
35645;DHT22;21764;52.042;6.830;2023-03-01T03:27:46;-3.40;99.50
35645;DHT22;21764;52.042;6.830;2023-03-01T03:32:47;-3.40;99.40
35645;DHT22;21764;52.042;6.830;2023-03-01T03:37:52;-3.40;99.40
35645;DHT22;21764;52.042;6.830;2023-03-01T03:43:10;-3.10;99.90
35645;DHT22;21764;52.042;6.830;2023-03-01T03:48:11;-3.00;99.40
35645;DHT22;21764;52.042;6.830;2023-03-01T03:53:12;-3.30;99.00
35645;DHT22;21764;52.042;6.830;2023-03-01T03:58:13;-3.40;99.20
35645;DHT22;21764;52.042;6.830;2023-03-01T04:03:15;-3.40;99.50
35645;DHT22;21764;52.042;6.830;2023-03-01T04:08:19;-3.50;99.40
35645;DHT22;21764;52.042;6.830;2023-03-01T04:13:22;-3.60;99.50
35645;DHT22;21764;52.042;6.830;2023-03-01T04:18:25;-3.70;99.40
35645;DHT22;21764;52.042;6.830;2023-03-01T04:23:26;-3.70;99.70
35645;DHT22;21764;52.042;6.830;2023-03-01T04:33:27;-3.70;99.40
35645;DHT22;21764;52.042;6.830;2023-03-01T04:38:28;-3.80;99.90
35645;DHT22;21764;52.042;6.830;2023-03-01T04:43:28;-3.80;99.30
35645;DHT22;21764;52.042;6.830;2023-03-01T04:48:30;-3.80;99.50
35645;DHT22;21764;52.042;6.830;2023-03-01T04:53:32;-3.80;99.90
35645;DHT22;21764;52.042;6.830;2023-03-01T04:58:33;-3.80;99.90
35645;DHT22;21764;52.042;6.830;2023-03-01T05:03:33;-3.90;99.90
35645;DHT22;21764;52.042;6.830;2023-03-01T05:08:34;-3.90;99.90
35645;DHT22;21764;52.042;6.830;2023-03-01T05:13:38;-3.90;99.90
35645;DHT22;21764;52.042;6.830;2023-03-01T05:18:40;-4.00;99.60
35645;DHT22;21764;52.042;6.830;2023-03-01T05:23:41;-4.00;99.90
35645;DHT22;21764;52.042;6.830;2023-03-01T05:28:42;-4.10;99.90
35645;DHT22;21764;52.042;6.830;2023-03-01T05:33:43;-4.10;99.90
35645;DHT22;21764;52.042;6.830;2023-03-01T05:38:44;-4.10;99.90
35645;DHT22;21764;52.042;6.830;2023-03-01T05:43:44;-4.10;99.90
35645;DHT22;21764;52.042;6.830;2023-03-01T05:48:45;-4.00;99.90
35645;DHT22;21764;52.042;6.830;2023-03-01T05:53:45;-4.10;99.90
35645;DHT22;21764;52.042;6.830;2023-03-01T05:58:48;-3.70;99.90
35645;DHT22;21764;52.042;6.830;2023-03-01T06:03:49;-3.80;99.90
35645;DHT22;21764;52.042;6.830;2023-03-01T06:08:51;-3.60;99.90
35645;DHT22;21764;52.042;6.830;2023-03-01T06:13:52;-3.50;99.90
35645;DHT22;21764;52.042;6.830;2023-03-01T06:18:53;-3.50;99.90
35645;DHT22;21764;52.042;6.830;2023-03-01T06:23:55;-3.40;99.90
35645;DHT22;21764;52.042;6.830;2023-03-01T06:28:55;-3.40;99.90
35645;DHT22;21764;52.042;6.830;2023-03-01T06:33:56;-2.90;99.90
35645;DHT22;21764;52.042;6.830;2023-03-01T06:38:57;-2.10;98.30
35645;DHT22;21764;52.042;6.830;2023-03-01T06:43:57;-2.40;98.60
35645;DHT22;21764;52.042;6.830;2023-03-01T06:48:58;-0.40;96.40
35645;DHT22;21764;52.042;6.830;2023-03-01T06:53:59;2.60;90.30
35645;DHT22;21764;52.042;6.830;2023-03-01T06:58:59;4.70;81.10
35645;DHT22;21764;52.042;6.830;2023-03-01T07:04:00;6.00;74.20
35645;DHT22;21764;52.042;6.830;2023-03-01T07:09:01;6.80;70.80
35645;DHT22;21764;52.042;6.830;2023-03-01T07:14:01;7.70;67.60
35645;DHT22;21764;52.042;6.830;2023-03-01T07:19:03;9.00;62.90
35645;DHT22;21764;52.042;6.830;2023-03-01T07:24:07;9.50;61.60
35645;DHT22;21764;52.042;6.830;2023-03-01T07:29:09;10.50;58.50
35645;DHT22;21764;52.042;6.830;2023-03-01T07:34:10;11.40;55.80
35645;DHT22;21764;52.042;6.830;2023-03-01T07:39:11;11.70;55.40
35645;DHT22;21764;52.042;6.830;2023-03-01T07:44:12;12.60;53.30
35645;DHT22;21764;52.042;6.830;2023-03-01T07:49:13;12.80;53.00
35645;DHT22;21764;52.042;6.830;2023-03-01T07:54:13;14.10;50.70
35645;DHT22;21764;52.042;6.830;2023-03-01T07:59:14;14.80;49.60
35645;DHT22;21764;52.042;6.830;2023-03-01T08:04:14;15.50;47.70
35645;DHT22;21764;52.042;6.830;2023-03-01T08:09:15;16.50;45.90
35645;DHT22;21764;52.042;6.830;2023-03-01T08:14:16;17.00;45.30
35645;DHT22;21764;52.042;6.830;2023-03-01T08:19:17;17.50;44.20
35645;DHT22;21764;52.042;6.830;2023-03-01T08:24:20;17.70;43.20
35645;DHT22;21764;52.042;6.830;2023-03-01T08:29:21;17.90;43.30
35645;DHT22;21764;52.042;6.830;2023-03-01T08:34:22;18.70;42.20
35645;DHT22;21764;52.042;6.830;2023-03-01T08:39:23;18.10;43.10
35645;DHT22;21764;52.042;6.830;2023-03-01T08:44:24;18.40;42.70
35645;DHT22;21764;52.042;6.830;2023-03-01T08:49:25;18.60;42.00
35645;DHT22;21764;52.042;6.830;2023-03-01T08:54:25;18.60;42.00
35645;DHT22;21764;52.042;6.830;2023-03-01T08:59:26;21.20;39.20
35645;DHT22;21764;52.042;6.830;2023-03-01T09:04:27;21.60;37.20
35645;DHT22;21764;52.042;6.830;2023-03-01T09:09:28;20.90;38.10
35645;DHT22;21764;52.042;6.830;2023-03-01T09:14:30;20.00;39.40
35645;DHT22;21764;52.042;6.830;2023-03-01T09:19:30;20.10;39.00
35645;DHT22;21764;52.042;6.830;2023-03-01T09:24:31;19.60;39.50
35645;DHT22;21764;52.042;6.830;2023-03-01T09:29:31;20.40;38.60
35645;DHT22;21764;52.042;6.830;2023-03-01T09:34:32;19.20;39.00
35645;DHT22;21764;52.042;6.830;2023-03-01T09:39:53;18.50;40.50
35645;DHT22;21764;52.042;6.830;2023-03-01T09:54:58;19.40;38.90
35645;DHT22;21764;52.042;6.830;2023-03-01T10:00:28;18.90;40.30
35645;DHT22;21764;52.042;6.830;2023-03-01T10:10:58;16.80;42.60
35645;DHT22;21764;52.042;6.830;2023-03-01T10:16:27;17.00;42.50
35645;DHT22;21764;52.042;6.830;2023-03-01T10:21:29;16.50;42.60
35645;DHT22;21764;52.042;6.830;2023-03-01T10:26:56;17.60;42.50
35645;DHT22;21764;52.042;6.830;2023-03-01T10:31:57;17.60;42.90
35645;DHT22;21764;52.042;6.830;2023-03-01T10:37:19;15.70;43.60
35645;DHT22;21764;52.042;6.830;2023-03-01T10:42:31;13.60;45.70
35645;DHT22;21764;52.042;6.830;2023-03-01T10:47:32;11.90;47.40
35645;DHT22;21764;52.042;6.830;2023-03-01T10:52:36;10.60;50.70
35645;DHT22;21764;52.042;6.830;2023-03-01T10:57:39;10.50;51.20
35645;DHT22;21764;52.042;6.830;2023-03-01T11:02:41;10.60;50.20
35645;DHT22;21764;52.042;6.830;2023-03-01T11:07:55;10.10;52.30
35645;DHT22;21764;52.042;6.830;2023-03-01T11:13:29;9.40;52.90
35645;DHT22;21764;52.042;6.830;2023-03-01T11:18:31;10.10;52.00
35645;DHT22;21764;52.042;6.830;2023-03-01T11:23:32;9.80;52.60
35645;DHT22;21764;52.042;6.830;2023-03-01T11:28:36;10.00;53.30
35645;DHT22;21764;52.042;6.830;2023-03-01T11:33:58;8.40;55.80
35645;DHT22;21764;52.042;6.830;2023-03-01T11:39:23;7.00;58.00
35645;DHT22;21764;52.042;6.830;2023-03-01T11:44:28;6.10;59.70
35645;DHT22;21764;52.042;6.830;2023-03-01T11:55:17;6.20;60.60
35645;DHT22;21764;52.042;6.830;2023-03-01T12:01:19;6.40;59.80
35645;DHT22;21764;52.042;6.830;2023-03-01T12:11:39;6.80;60.30
35645;DHT22;21764;52.042;6.830;2023-03-01T12:17:08;6.90;60.80
35645;DHT22;21764;52.042;6.830;2023-03-01T12:22:32;6.20;59.90
35645;DHT22;21764;52.042;6.830;2023-03-01T12:38:50;6.20;59.70
35645;DHT22;21764;52.042;6.830;2023-03-01T12:49:13;6.40;59.30
35645;DHT22;21764;52.042;6.830;2023-03-01T12:54:19;6.30;57.80
35645;DHT22;21764;52.042;6.830;2023-03-01T13:20:46;6.30;57.90
35645;DHT22;21764;52.042;6.830;2023-03-01T13:31:09;6.50;59.90
35645;DHT22;21764;52.042;6.830;2023-03-01T13:36:13;6.60;60.50
35645;DHT22;21764;52.042;6.830;2023-03-01T13:46:40;6.50;59.80
35645;DHT22;21764;52.042;6.830;2023-03-01T13:51:40;6.60;61.00
35645;DHT22;21764;52.042;6.830;2023-03-01T13:56:42;6.60;59.70
35645;DHT22;21764;52.042;6.830;2023-03-01T14:01:44;6.50;59.60
35645;DHT22;21764;52.042;6.830;2023-03-01T14:06:52;6.50;58.70
35645;DHT22;21764;52.042;6.830;2023-03-01T14:17:50;6.70;58.60
35645;DHT22;21764;52.042;6.830;2023-03-01T14:22:55;6.70;57.80
35645;DHT22;21764;52.042;6.830;2023-03-01T14:28:24;6.70;57.20
35645;DHT22;21764;52.042;6.830;2023-03-01T14:33:30;6.80;57.00
35645;DHT22;21764;52.042;6.830;2023-03-01T14:38:39;6.90;58.00
35645;DHT22;21764;52.042;6.830;2023-03-01T14:43:48;6.90;57.20
35645;DHT22;21764;52.042;6.830;2023-03-01T14:48:56;6.90;57.70
35645;DHT22;21764;52.042;6.830;2023-03-01T14:53:58;6.90;57.10
35645;DHT22;21764;52.042;6.830;2023-03-01T14:58:59;6.90;58.00
35645;DHT22;21764;52.042;6.830;2023-03-01T15:04:00;7.00;58.40
35645;DHT22;21764;52.042;6.830;2023-03-01T15:09:02;6.90;58.50
35645;DHT22;21764;52.042;6.830;2023-03-01T15:14:40;6.90;58.50
35645;DHT22;21764;52.042;6.830;2023-03-01T15:19:41;6.90;58.50
35645;DHT22;21764;52.042;6.830;2023-03-01T15:24:47;6.80;58.40
35645;DHT22;21764;52.042;6.830;2023-03-01T15:29:56;6.80;58.10
35645;DHT22;21764;52.042;6.830;2023-03-01T15:35:40;6.70;58.50
35645;DHT22;21764;52.042;6.830;2023-03-01T15:40:50;6.70;59.00
35645;DHT22;21764;52.042;6.830;2023-03-01T15:45:59;6.70;61.00
35645;DHT22;21764;52.042;6.830;2023-03-01T15:51:01;6.70;62.20
35645;DHT22;21764;52.042;6.830;2023-03-01T15:56:02;6.60;63.00
35645;DHT22;21764;52.042;6.830;2023-03-01T16:01:07;6.50;63.30
35645;DHT22;21764;52.042;6.830;2023-03-01T16:06:11;6.40;62.90
35645;DHT22;21764;52.042;6.830;2023-03-01T16:11:17;6.30;62.90
35645;DHT22;21764;52.042;6.830;2023-03-01T16:16:18;6.20;63.70
35645;DHT22;21764;52.042;6.830;2023-03-01T16:21:24;6.10;64.50
35645;DHT22;21764;52.042;6.830;2023-03-01T16:26:25;6.00;64.60
35645;DHT22;21764;52.042;6.830;2023-03-01T16:31:26;5.90;64.80
35645;DHT22;21764;52.042;6.830;2023-03-01T16:36:27;5.80;65.40
35645;DHT22;21764;52.042;6.830;2023-03-01T16:41:30;5.60;66.10
35645;DHT22;21764;52.042;6.830;2023-03-01T16:46:31;5.50;65.80
35645;DHT22;21764;52.042;6.830;2023-03-01T16:51:32;5.40;65.80
35645;DHT22;21764;52.042;6.830;2023-03-01T16:56:35;5.30;66.70
35645;DHT22;21764;52.042;6.830;2023-03-01T17:01:37;5.10;67.20
35645;DHT22;21764;52.042;6.830;2023-03-01T17:06:41;5.00;68.10
35645;DHT22;21764;52.042;6.830;2023-03-01T17:11:42;4.80;68.60
35645;DHT22;21764;52.042;6.830;2023-03-01T17:16:43;4.70;69.00
35645;DHT22;21764;52.042;6.830;2023-03-01T17:21:45;4.50;69.90
35645;DHT22;21764;52.042;6.830;2023-03-01T17:26:46;4.50;70.30
35645;DHT22;21764;52.042;6.830;2023-03-01T17:31:46;4.40;70.50
35645;DHT22;21764;52.042;6.830;2023-03-01T17:36:47;4.20;71.10
35645;DHT22;21764;52.042;6.830;2023-03-01T17:41:50;4.00;72.20
35645;DHT22;21764;52.042;6.830;2023-03-01T17:46:51;3.80;73.50
35645;DHT22;21764;52.042;6.830;2023-03-01T17:51:51;3.70;74.00
35645;DHT22;21764;52.042;6.830;2023-03-01T17:56:53;3.70;74.50
35645;DHT22;21764;52.042;6.830;2023-03-01T18:01:55;3.70;74.50
35645;DHT22;21764;52.042;6.830;2023-03-01T18:06:56;3.60;75.30
35645;DHT22;21764;52.042;6.830;2023-03-01T18:11:57;3.70;75.10
35645;DHT22;21764;52.042;6.830;2023-03-01T18:16:59;3.60;75.30
35645;DHT22;21764;52.042;6.830;2023-03-01T18:22:01;3.40;75.80
35645;DHT22;21764;52.042;6.830;2023-03-01T18:27:02;3.30;77.00
35645;DHT22;21764;52.042;6.830;2023-03-01T18:32:03;3.20;77.40
35645;DHT22;21764;52.042;6.830;2023-03-01T18:37:04;3.10;77.80
35645;DHT22;21764;52.042;6.830;2023-03-01T18:42:05;3.20;77.50
35645;DHT22;21764;52.042;6.830;2023-03-01T18:47:05;3.10;77.60
35645;DHT22;21764;52.042;6.830;2023-03-01T18:52:06;3.00;78.40
35645;DHT22;21764;52.042;6.830;2023-03-01T18:57:07;2.90;79.30
35645;DHT22;21764;52.042;6.830;2023-03-01T19:02:10;2.80;79.70
35645;DHT22;21764;52.042;6.830;2023-03-01T19:07:11;2.80;79.90
35645;DHT22;21764;52.042;6.830;2023-03-01T19:12:11;2.60;80.60
35645;DHT22;21764;52.042;6.830;2023-03-01T19:17:13;2.60;81.20
35645;DHT22;21764;52.042;6.830;2023-03-01T19:22:13;2.50;81.30
35645;DHT22;21764;52.042;6.830;2023-03-01T19:27:14;2.50;81.00
35645;DHT22;21764;52.042;6.830;2023-03-01T19:32:15;2.50;80.90
35645;DHT22;21764;52.042;6.830;2023-03-01T19:37:15;2.40;81.60
35645;DHT22;21764;52.042;6.830;2023-03-01T19:42:16;2.20;81.90
35645;DHT22;21764;52.042;6.830;2023-03-01T19:47:17;2.10;82.20
35645;DHT22;21764;52.042;6.830;2023-03-01T19:52:18;2.10;83.30
35645;DHT22;21764;52.042;6.830;2023-03-01T19:57:19;2.10;82.40
35645;DHT22;21764;52.042;6.830;2023-03-01T20:02:20;2.00;84.30
35645;DHT22;21764;52.042;6.830;2023-03-01T20:07:21;1.80;84.40
35645;DHT22;21764;52.042;6.830;2023-03-01T20:12:21;1.60;84.80
35645;DHT22;21764;52.042;6.830;2023-03-01T20:17:22;1.60;85.30
35645;DHT22;21764;52.042;6.830;2023-03-01T20:22:23;1.60;85.60
35645;DHT22;21764;52.042;6.830;2023-03-01T20:27:23;1.50;86.40
35645;DHT22;21764;52.042;6.830;2023-03-01T20:32:24;1.40;86.90
35645;DHT22;21764;52.042;6.830;2023-03-01T20:37:25;1.20;87.50
35645;DHT22;21764;52.042;6.830;2023-03-01T20:42:25;1.10;88.20
35645;DHT22;21764;52.042;6.830;2023-03-01T20:47:26;1.10;88.90
35645;DHT22;21764;52.042;6.830;2023-03-01T20:52:27;0.90;89.20
35645;DHT22;21764;52.042;6.830;2023-03-01T20:57:28;1.00;88.30
35645;DHT22;21764;52.042;6.830;2023-03-01T21:02:30;0.90;89.00
35645;DHT22;21764;52.042;6.830;2023-03-01T21:07:30;0.90;88.70
35645;DHT22;21764;52.042;6.830;2023-03-01T21:12:31;0.80;89.80
35645;DHT22;21764;52.042;6.830;2023-03-01T21:17:32;0.70;89.70
35645;DHT22;21764;52.042;6.830;2023-03-01T21:22:33;0.80;89.40
35645;DHT22;21764;52.042;6.830;2023-03-01T21:27:35;0.80;89.60
35645;DHT22;21764;52.042;6.830;2023-03-01T21:32:37;0.60;90.10
35645;DHT22;21764;52.042;6.830;2023-03-01T21:37:37;0.70;89.10
35645;DHT22;21764;52.042;6.830;2023-03-01T21:42:39;0.70;89.90
35645;DHT22;21764;52.042;6.830;2023-03-01T21:47:43;0.70;89.90
35645;DHT22;21764;52.042;6.830;2023-03-01T21:52:44;0.70;90.20
35645;DHT22;21764;52.042;6.830;2023-03-01T21:57:44;0.80;89.40
35645;DHT22;21764;52.042;6.830;2023-03-01T22:02:45;0.80;89.10
35645;DHT22;21764;52.042;6.830;2023-03-01T22:07:45;0.90;89.50
35645;DHT22;21764;52.042;6.830;2023-03-01T22:12:46;0.90;89.20
35645;DHT22;21764;52.042;6.830;2023-03-01T22:17:47;0.90;89.10
35645;DHT22;21764;52.042;6.830;2023-03-01T22:22:47;1.00;89.20
35645;DHT22;21764;52.042;6.830;2023-03-01T22:27:48;1.00;89.00
35645;DHT22;21764;52.042;6.830;2023-03-01T22:32:49;0.80;90.00
35645;DHT22;21764;52.042;6.830;2023-03-01T22:37:49;0.70;90.20
35645;DHT22;21764;52.042;6.830;2023-03-01T22:42:50;0.70;90.80
35645;DHT22;21764;52.042;6.830;2023-03-01T22:47:51;0.60;90.80
35645;DHT22;21764;52.042;6.830;2023-03-01T22:52:51;0.60;90.70
35645;DHT22;21764;52.042;6.830;2023-03-01T22:57:52;0.70;90.20
35645;DHT22;21764;52.042;6.830;2023-03-01T23:02:53;0.80;90.30
35645;DHT22;21764;52.042;6.830;2023-03-01T23:07:53;0.80;90.50
35645;DHT22;21764;52.042;6.830;2023-03-01T23:12:55;0.70;90.80
35645;DHT22;21764;52.042;6.830;2023-03-01T23:17:57;0.60;91.00
35645;DHT22;21764;52.042;6.830;2023-03-01T23:22:57;0.40;91.40
35645;DHT22;21764;52.042;6.830;2023-03-01T23:28:00;0.30;91.80
35645;DHT22;21764;52.042;6.830;2023-03-01T23:33:02;0.20;92.50
35645;DHT22;21764;52.042;6.830;2023-03-01T23:38:02;0.10;92.80
35645;DHT22;21764;52.042;6.830;2023-03-01T23:43:03;0.00;93.50
35645;DHT22;21764;52.042;6.830;2023-03-01T23:48:04;0.00;94.20
35645;DHT22;21764;52.042;6.830;2023-03-01T23:53:04;0.00;94.60
35645;DHT22;21764;52.042;6.830;2023-03-01T23:58:05;0.00;95.40
